Time;durP1;ratioP1;P1;durP2;ratioP2;P2;SDS_P1;SDS_P2;PMS_P1;PMS_P2;Temp;Humidity;BMP_temperature;BMP_pressure;BME280_temperature;BME280_humidity;BME280_pressure;Samples;Min_cycle;Max_cycle;Signal;HPM_P1;HPM_P2
2022/04/09 00:00:30;;;;;;;3.88;1.58;;;13.30;1.00;;;;;;4972772;28;20027;-84
2022/04/09 00:02:56;;;;;;;1.60;0.90;;;13.20;1.00;;;;;;4972993;28;20039;-83
2022/04/09 00:05:22;;;;;;;5.32;1.38;;;13.10;1.00;;;;;;4973306;28;20030;-83
2022/04/09 00:07:48;;;;;;;3.20;1.30;;;13.10;1.00;;;;;;4973408;28;20027;-83
2022/04/09 00:10:14;;;;;;;2.03;0.98;;;13.00;1.00;;;;;;4974141;28;20435;-83
2022/04/09 00:12:44;;;;;;;2.90;0.80;;;12.90;1.00;;;;;;4973032;28;20093;-83
2022/04/09 00:15:10;;;;;;;3.05;0.88;;;12.80;1.00;;;;;;4972906;28;20055;-83
2022/04/09 00:17:43;;;;;;;1.85;0.85;;;12.80;1.00;;;;;;4973056;28;20122;-83
2022/04/09 00:20:10;;;;;;;3.40;0.63;;;12.80;1.00;;;;;;4940853;28;20427;-83
2022/04/09 00:22:38;;;;;;;1.92;0.55;;;12.80;1.00;;;;;;4969806;28;20402;-83
2022/04/09 00:25:05;;;;;;;2.35;0.82;;;12.70;1.00;;;;;;4973059;28;20035;-83
2022/04/09 00:27:31;;;;;;;1.92;0.60;;;12.80;1.00;;;;;;4973171;28;20058;-83
2022/04/09 00:29:56;;;;;;;1.42;0.60;;;12.70;1.00;;;;;;4972762;28;20034;-83
2022/04/09 00:32:22;;;;;;;2.53;0.80;;;12.70;1.00;;;;;;4973034;28;20127;-83
2022/04/09 00:34:48;;;;;;;1.75;0.60;;;12.70;1.00;;;;;;4955733;28;20025;-83
2022/04/09 00:37:13;;;;;;;1.00;0.50;;;12.70;1.00;;;;;;4973605;28;20419;-83
2022/04/09 00:39:39;;;;;;;2.05;0.55;;;12.30;1.00;;;;;;4972056;28;20034;-83
2022/04/09 00:42:05;;;;;;;4.05;0.40;;;12.10;1.00;;;;;;4972735;28;20041;-83
2022/04/09 00:44:31;;;;;;;1.60;0.30;;;11.90;1.00;;;;;;4972832;28;20031;-83
2022/04/09 00:46:57;;;;;;;1.95;0.40;;;11.70;1.00;;;;;;4972051;28;20030;-83
2022/04/09 00:49:24;;;;;;;1.52;0.30;;;11.70;1.00;;;;;;4973649;28;20476;-83
2022/04/09 00:51:51;;;;;;;2.75;0.57;;;11.50;1.00;;;;;;4972387;28;20076;-83
2022/04/09 00:54:20;;;;;;;1.10;0.40;;;11.50;1.00;;;;;;4972321;28;20038;-83
2022/04/09 00:56:48;;;;;;;1.52;0.40;;;11.40;1.00;;;;;;4972382;28;20023;-83
2022/04/09 00:59:16;;;;;;;1.38;0.45;;;11.50;1.00;;;;;;4973091;28;20061;-83
2022/04/09 01:01:42;;;;;;;1.13;0.40;;;11.50;1.00;;;;;;4972570;28;20031;-83
2022/04/09 01:04:11;;;;;;;1.00;0.57;;;11.50;1.00;;;;;;4972814;28;20361;-83
2022/04/09 01:06:38;;;;;;;1.52;0.60;;;11.60;1.00;;;;;;4972181;28;20480;-83
2022/04/09 01:09:06;;;;;;;0.90;0.40;;;11.50;1.00;;;;;;4972206;28;20027;-83
2022/04/09 01:11:33;;;;;;;0.82;0.50;;;11.50;1.00;;;;;;4972479;28;20074;-83
2022/04/09 01:13:59;;;;;;;1.20;0.50;;;11.20;1.00;;;;;;4971853;28;20117;-83
2022/04/09 01:16:28;;;;;;;0.50;0.50;;;11.20;1.00;;;;;;4972863;28;20018;-83
2022/04/09 01:18:55;;;;;;;0.77;0.60;;;11.00;1.00;;;;;;4972166;28;20486;-83
2022/04/09 01:21:24;;;;;;;1.23;0.73;;;11.00;1.00;;;;;;4972129;28;20539;-83
2022/04/09 01:23:49;;;;;;;0.47;0.47;;;11.10;1.00;;;;;;4972339;28;20030;-83
2022/04/09 01:26:15;;;;;;;0.55;0.38;;;11.00;1.00;;;;;;4972661;28;20094;-83
2022/04/09 01:28:42;;;;;;;0.25;0.20;;;10.90;1.00;;;;;;4972076;28;20031;-83
2022/04/09 01:31:07;;;;;;;0.65;0.20;;;10.60;1.00;;;;;;4972717;28;20027;-83
2022/04/09 01:33:33;;;;;;;0.13;0.13;;;10.30;1.00;;;;;;4972112;28;20034;-83
2022/04/09 01:35:59;;;;;;;0.10;0.10;;;10.20;1.00;;;;;;4971859;28;20034;-83
2022/04/09 01:38:24;;;;;;;0.20;0.20;;;10.00;1.00;;;;;;4972085;28;20042;-83
2022/04/09 01:40:50;;;;;;;0.22;0.22;;;10.10;1.00;;;;;;4972089;28;20034;-83
2022/04/09 01:43:16;;;;;;;0.73;0.30;;;10.00;1.00;;;;;;4954737;28;20085;-83
2022/04/09 01:45:41;;;;;;;0.22;0.17;;;9.80;1.00;;;;;;4971989;28;20137;-83
2022/04/09 01:48:07;;;;;;;0.25;0.25;;;9.80;1.00;;;;;;4971786;28;20095;-83
2022/04/09 01:50:33;;;;;;;0.20;0.20;;;9.50;1.00;;;;;;4972293;28;20101;-83
2022/04/09 01:52:59;;;;;;;0.30;0.30;;;9.50;1.00;;;;;;4971699;28;20043;-83
2022/04/09 01:55:26;;;;;;;0.20;0.20;;;9.50;1.00;;;;;;4973058;28;20230;-83
2022/04/09 01:57:51;;;;;;;0.30;0.30;;;9.50;1.00;;;;;;4971283;28;20070;-83
2022/04/09 02:00:18;;;;;;;0.55;0.40;;;9.30;1.00;;;;;;4971822;28;20031;-83
2022/04/09 02:02:45;;;;;;;0.30;0.30;;;9.40;1.00;;;;;;4972067;28;20034;-83
2022/04/09 02:05:12;;;;;;;0.30;0.30;;;9.40;1.00;;;;;;4972040;28;20042;-83
2022/04/09 02:07:39;;;;;;;0.32;0.32;;;9.50;1.00;;;;;;4972219;28;20421;-83
2022/04/09 02:10:06;;;;;;;0.80;0.40;;;9.40;1.00;;;;;;4972437;28;20081;-83
2022/04/09 02:12:32;;;;;;;2.03;0.30;;;9.40;1.00;;;;;;4971265;28;20030;-84
2022/04/09 02:15:10;;;;;;;0.28;0.28;;;9.60;1.00;;;;;;4971762;28;20129;-83
2022/04/09 02:17:38;;;;;;;0.32;0.32;;;9.50;1.00;;;;;;4954376;28;20303;-83
2022/04/09 02:20:05;;;;;;;0.30;0.30;;;9.50;1.00;;;;;;4971690;28;20019;-83
2022/04/09 02:22:44;;;;;;;0.63;0.38;;;9.50;1.00;;;;;;4972087;28;20030;-83
2022/04/09 02:25:13;;;;;;;0.25;0.25;;;9.60;1.00;;;;;;4973928;28;20097;-83
2022/04/09 02:27:39;;;;;;;0.30;0.30;;;9.30;1.00;;;;;;4974688;28;20387;-83
2022/04/09 02:30:07;;;;;;;0.40;0.40;;;9.00;1.00;;;;;;4975056;28;20034;-83
2022/04/09 02:32:42;;;;;;;0.30;0.30;;;8.70;1.00;;;;;;4975180;28;20376;-83
2022/04/09 02:35:08;;;;;;;0.45;0.40;;;8.70;1.00;;;;;;4959868;28;20039;-82
2022/04/09 02:37:33;;;;;;;0.40;0.40;;;8.70;1.00;;;;;;4975165;28;20046;-84
2022/04/09 02:39:59;;;;;;;0.50;0.50;;;8.80;1.00;;;;;;4974497;28;20085;-83
2022/04/09 02:42:24;;;;;;;0.65;0.40;;;8.70;1.00;;;;;;4974467;28;20034;-83
2022/04/09 02:44:50;;;;;;;0.35;0.35;;;8.70;1.00;;;;;;4975109;28;20031;-82
2022/04/09 02:47:16;;;;;;;0.40;0.40;;;8.70;1.00;;;;;;4974981;28;20510;-83
2022/04/09 02:49:41;;;;;;;0.40;0.40;;;8.90;1.00;;;;;;4974868;28;20031;-83
2022/04/09 02:52:07;;;;;;;0.68;0.68;;;8.40;1.00;;;;;;4975014;28;20111;-83
2022/04/09 02:54:33;;;;;;;0.50;0.50;;;8.20;1.00;;;;;;4974643;28;20034;-83
2022/04/09 02:56:58;;;;;;;0.55;0.50;;;8.10;1.00;;;;;;4974764;28;20419;-83
2022/04/09 02:59:24;;;;;;;0.55;0.55;;;8.10;1.00;;;;;;4957451;28;20440;-83
2022/04/09 03:01:49;;;;;;;0.60;0.60;;;8.10;1.00;;;;;;4974681;28;20031;-83
2022/04/09 03:04:15;;;;;;;0.50;0.50;;;8.20;1.00;;;;;;4975080;28;20095;-83
2022/04/09 03:06:41;;;;;;;0.90;0.70;;;8.50;1.00;;;;;;4956699;28;20050;-83
2022/04/09 03:09:07;;;;;;;0.73;0.52;;;8.40;1.00;;;;;;4974290;28;20058;-83
2022/04/09 03:11:33;;;;;;;0.70;0.70;;;8.60;1.00;;;;;;4974526;28;20035;-83
2022/04/09 03:13:58;;;;;;;0.60;0.60;;;8.30;1.00;;;;;;4974587;28;20070;-82
2022/04/09 03:16:24;;;;;;;0.65;0.57;;;8.50;1.00;;;;;;4974963;28;20499;-82
2022/04/09 03:18:50;;;;;;;0.70;0.60;;;8.50;1.00;;;;;;4974372;28;20037;-82
2022/04/09 03:21:16;;;;;;;0.50;0.50;;;8.30;1.00;;;;;;4974108;28;20034;-83
2022/04/09 03:23:41;;;;;;;0.50;0.50;;;8.30;1.00;;;;;;4974283;28;20023;-82
2022/04/09 03:26:07;;;;;;;0.50;0.50;;;8.10;1.00;;;;;;4974071;28;20395;-84
2022/04/09 03:28:33;;;;;;;0.70;0.70;;;8.10;1.00;;;;;;4974767;28;20023;-84
2022/04/09 03:30:59;;;;;;;1.50;0.50;;;8.10;1.00;;;;;;4974475;28;20035;-83
2022/04/09 03:33:25;;;;;;;0.60;0.60;;;8.10;1.00;;;;;;4973781;28;20468;-84
2022/04/09 03:35:51;;;;;;;0.65;0.65;;;8.00;1.00;;;;;;4973681;28;20023;-84
2022/04/09 03:38:17;;;;;;;0.50;0.50;;;8.10;1.00;;;;;;4955070;28;20526;-84
2022/04/09 03:40:43;;;;;;;0.50;0.50;;;8.00;1.00;;;;;;4973979;28;20215;-84
2022/04/09 03:43:09;;;;;;;0.68;0.60;;;7.70;1.00;;;;;;4974200;28;20022;-84
2022/04/09 03:45:35;;;;;;;0.68;0.52;;;7.70;1.00;;;;;;4974272;28;20038;-83
2022/04/09 03:48:01;;;;;;;0.60;0.60;;;7.70;1.00;;;;;;4972848;28;20041;-84
2022/04/09 03:50:27;;;;;;;0.60;0.60;;;7.80;1.00;;;;;;4974041;28;20026;-84
2022/04/09 03:52:52;;;;;;;0.60;0.60;;;7.80;1.00;;;;;;4973882;28;20035;-84
2022/04/09 03:55:19;;;;;;;0.57;0.57;;;7.70;1.00;;;;;;4956522;28;20018;-84
2022/04/09 03:57:44;;;;;;;0.98;0.77;;;7.90;1.00;;;;;;4973542;28;20050;-84
2022/04/09 04:00:11;;;;;;;0.60;0.60;;;8.10;1.00;;;;;;4956545;28;20436;-84
2022/04/09 04:02:36;;;;;;;0.68;0.68;;;7.90;1.00;;;;;;4973658;28;20423;-84
2022/04/09 04:05:03;;;;;;;0.60;0.60;;;8.10;1.00;;;;;;4973516;28;20027;-84
2022/04/09 04:07:33;;;;;;;0.65;0.65;;;8.10;1.00;;;;;;4974173;28;20031;-84
2022/04/09 04:10:04;;;;;;;0.68;0.60;;;8.00;1.00;;;;;;4973375;28;20039;-84
2022/04/09 04:12:29;;;;;;;0.50;0.50;;;8.10;1.00;;;;;;4972967;28;20074;-84
2022/04/09 04:14:55;;;;;;;0.60;0.60;;;8.50;1.00;;;;;;4973120;28;20039;-84
2022/04/09 04:17:21;;;;;;;0.60;0.60;;;8.20;1.00;;;;;;4973197;28;20019;-84
2022/04/09 04:19:46;;;;;;;0.60;0.60;;;8.20;1.00;;;;;;4973957;28;20507;-84
2022/04/09 04:22:12;;;;;;;0.50;0.50;;;8.20;1.00;;;;;;4956335;28;20038;-84
2022/04/09 04:24:37;;;;;;;0.60;0.60;;;7.90;1.00;;;;;;4972714;28;20108;-84
2022/04/09 04:27:05;;;;;;;0.52;0.52;;;7.70;1.00;;;;;;4973188;28;20034;-84
2022/04/09 04:29:31;;;;;;;0.40;0.40;;;7.90;1.00;;;;;;4973473;28;20026;-84
2022/04/09 04:31:57;;;;;;;0.60;0.60;;;8.00;1.00;;;;;;4972818;28;20396;-84
2022/04/09 04:34:22;;;;;;;0.63;0.63;;;8.10;1.00;;;;;;4973797;28;20035;-84
2022/04/09 04:36:48;;;;;;;0.52;0.52;;;7.70;1.00;;;;;;4972561;28;20023;-83
2022/04/09 04:39:14;;;;;;;0.60;0.60;;;7.50;1.00;;;;;;4972788;28;20031;-84
2022/04/09 04:41:39;;;;;;;0.70;0.70;;;7.60;1.00;;;;;;4973202;28;20027;-84
2022/04/09 04:44:06;;;;;;;0.60;0.60;;;7.60;1.00;;;;;;4973266;28;20027;-84
2022/04/09 04:46:33;;;;;;;0.70;0.70;;;7.60;1.00;;;;;;4972821;28;20396;-84
2022/04/09 04:48:59;;;;;;;0.80;0.80;;;7.80;1.00;;;;;;4972557;28;20117;-84
2022/04/09 04:51:25;;;;;;;0.50;0.50;;;7.80;1.00;;;;;;4972366;28;20441;-84
2022/04/09 04:53:50;;;;;;;0.65;0.65;;;7.70;1.00;;;;;;4972103;28;20038;-84
2022/04/09 04:56:16;;;;;;;0.75;0.75;;;7.70;1.00;;;;;;4972512;28;20414;-85
2022/04/09 04:58:42;;;;;;;0.60;0.60;;;7.80;1.00;;;;;;4973316;28;20031;-84
2022/04/09 05:01:08;;;;;;;0.55;0.55;;;7.60;1.00;;;;;;4973144;28;20023;-84
2022/04/09 05:03:37;;;;;;;0.60;0.60;;;7.60;1.00;;;;;;4972238;28;20026;-84
2022/04/09 05:06:03;;;;;;;0.70;0.60;;;7.80;1.00;;;;;;4971789;28;20495;-83
2022/04/09 05:08:29;;;;;;;0.60;0.60;;;7.70;1.00;;;;;;4972411;28;20058;-84
2022/04/09 05:10:55;;;;;;;0.70;0.70;;;7.70;1.00;;;;;;4972281;28;20054;-84
2022/04/09 05:13:20;;;;;;;0.80;0.60;;;7.80;1.00;;;;;;4973626;28;20074;-84
2022/04/09 05:15:46;;;;;;;0.60;0.60;;;7.80;1.00;;;;;;4954809;28;20034;-84
2022/04/09 05:18:12;;;;;;;0.60;0.60;;;7.90;1.00;;;;;;4972092;28;20037;-84
2022/04/09 05:20:37;;;;;;;0.60;0.60;;;7.70;1.00;;;;;;4972027;28;20058;-84
2022/04/09 05:23:03;;;;;;;1.00;0.77;;;7.80;1.00;;;;;;4972148;28;20023;-84
2022/04/09 05:25:31;;;;;;;0.70;0.70;;;7.80;1.00;;;;;;4973598;28;20030;-84
2022/04/09 05:28:02;;;;;;;0.90;0.90;;;7.80;1.00;;;;;;4971884;28;20039;-84
2022/04/09 05:30:28;;;;;;;0.90;0.90;;;7.90;1.00;;;;;;4971934;28;20520;-84
2022/04/09 05:32:54;;;;;;;0.80;0.80;;;7.70;1.00;;;;;;4971751;28;20134;-84
2022/04/09 05:35:19;;;;;;;0.98;0.98;;;7.60;1.00;;;;;;4971633;28;20068;-84
2022/04/09 05:37:46;;;;;;;1.00;1.00;;;7.90;1.00;;;;;;4972352;28;20412;-84
2022/04/09 05:40:13;;;;;;;1.02;1.00;;;8.10;1.00;;;;;;4972031;28;20041;-84
2022/04/09 05:42:39;;;;;;;0.88;0.85;;;7.60;1.00;;;;;;4971845;28;20051;-84
2022/04/09 05:45:05;;;;;;;0.88;0.88;;;7.70;1.00;;;;;;4971899;28;20033;-84
2022/04/09 05:47:30;;;;;;;0.90;0.90;;;7.70;1.00;;;;;;4971911;28;20477;-84
2022/04/09 05:49:59;;;;;;;1.00;1.00;;;7.80;1.00;;;;;;4954428;28;20135;-84
2022/04/09 05:52:25;;;;;;;0.80;0.80;;;7.70;1.00;;;;;;4972418;28;20038;-84
2022/04/09 05:54:50;;;;;;;3.10;1.10;;;7.80;1.00;;;;;;4971747;28;20027;-84
2022/04/09 05:57:16;;;;;;;0.80;0.80;;;8.20;1.00;;;;;;4971861;28;20053;-84
2022/04/09 05:59:42;;;;;;;1.00;1.00;;;7.90;1.00;;;;;;4974107;28;20425;-84
2022/04/09 06:02:08;;;;;;;0.90;0.70;;;8.00;1.00;;;;;;4975876;28;20033;-84
2022/04/09 06:04:34;;;;;;;1.08;1.00;;;8.00;1.00;;;;;;4975812;28;20033;-84
2022/04/09 06:07:03;;;;;;;1.17;1.08;;;7.70;1.00;;;;;;4975740;28;20118;-84
2022/04/09 06:09:29;;;;;;;1.25;1.13;;;7.70;1.00;;;;;;4975913;28;20023;-84
2022/04/09 06:11:55;;;;;;;1.05;0.98;;;7.70;1.00;;;;;;4958157;28;20372;-84
2022/04/09 06:14:20;;;;;;;0.90;0.90;;;7.70;1.00;;;;;;4975299;28;20093;-84
2022/04/09 06:16:46;;;;;;;1.15;1.05;;;7.70;1.00;;;;;;4975542;28;20027;-84
2022/04/09 06:19:12;;;;;;;0.85;0.85;;;7.60;1.00;;;;;;4974416;28;20027;-84
2022/04/09 06:21:37;;;;;;;1.17;1.08;;;7.80;1.00;;;;;;4975559;28;20084;-84
2022/04/09 06:24:03;;;;;;;1.20;1.10;;;7.80;1.00;;;;;;4975653;28;20022;-81
2022/04/09 06:26:29;;;;;;;0.90;0.90;;;7.90;1.00;;;;;;4975626;28;20031;-82
2022/04/09 06:28:55;;;;;;;1.33;0.90;;;7.80;1.00;;;;;;4975179;28;20030;-84
2022/04/09 06:31:21;;;;;;;1.05;1.05;;;7.80;1.00;;;;;;4975616;28;20399;-85
2022/04/09 06:33:47;;;;;;;1.10;0.93;;;7.80;1.00;;;;;;4974432;28;20046;-87
2022/04/09 06:36:13;;;;;;;0.88;0.88;;;7.80;1.00;;;;;;4975298;28;20031;-86
2022/04/09 06:38:38;;;;;;;1.35;1.25;;;7.90;1.00;;;;;;4975587;28;20050;-86
2022/04/09 06:41:04;;;;;;;1.63;1.00;;;7.90;1.00;;;;;;4974906;28;20042;-86
2022/04/09 06:43:30;;;;;;;1.20;1.10;;;7.90;1.00;;;;;;4975745;28;20030;-86
2022/04/09 06:45:56;;;;;;;1.30;1.20;;;7.80;1.00;;;;;;4974897;28;20085;-86
2022/04/09 06:48:22;;;;;;;2.33;1.23;;;7.80;1.00;;;;;;4974523;28;20031;-86
2022/04/09 06:50:48;;;;;;;1.40;1.30;;;8.00;1.00;;;;;;4974708;28;20066;-86
2022/04/09 06:53:13;;;;;;;1.50;1.40;;;8.10;1.00;;;;;;4975154;28;20034;-86
2022/04/09 06:55:39;;;;;;;2.13;1.40;;;8.10;1.00;;;;;;4975823;28;20421;-86
2022/04/09 06:58:04;;;;;;;2.65;1.50;;;8.00;1.00;;;;;;4974755;28;20065;-86
2022/04/09 07:00:32;;;;;;;2.75;1.40;;;8.20;1.00;;;;;;4974889;28;20091;-86
2022/04/09 07:02:58;;;;;;;1.58;1.48;;;8.40;1.00;;;;;;4974007;28;20039;-86
2022/04/09 07:05:23;;;;;;;1.80;1.65;;;8.30;1.00;;;;;;4974960;28;20054;-86
2022/04/09 07:07:49;;;;;;;2.38;1.42;;;8.50;1.00;;;;;;4974793;28;20023;-86
2022/04/09 07:10:15;;;;;;;1.55;1.45;;;8.00;1.00;;;;;;4974437;28;20030;-86
2022/04/09 07:12:41;;;;;;;1.75;1.30;;;8.10;1.00;;;;;;4974460;28;20035;-85
2022/04/09 07:15:08;;;;;;;1.98;1.60;;;8.00;1.00;;;;;;4974293;28;20145;-86
2022/04/09 07:17:34;;;;;;;1.60;1.50;;;8.00;1.00;;;;;;4974064;28;20086;-86
2022/04/09 07:20:00;;;;;;;1.70;1.60;;;7.90;1.00;;;;;;4974333;28;20047;-86
2022/04/09 07:22:27;;;;;;;2.72;1.80;;;7.80;1.00;;;;;;4975204;28;20041;-85
2022/04/09 07:24:53;;;;;;;2.15;1.58;;;7.70;1.00;;;;;;4974098;28;20019;-85
2022/04/09 07:27:20;;;;;;;2.00;1.90;;;7.80;1.00;;;;;;4973984;28;20041;-86
2022/04/09 07:29:46;;;;;;;1.67;1.58;;;8.00;1.00;;;;;;4973976;28;20023;-86
2022/04/09 07:32:11;;;;;;;2.13;1.80;;;8.10;1.00;;;;;;4973860;28;20027;-86
2022/04/09 07:34:37;;;;;;;1.90;1.67;;;8.00;1.00;;;;;;4974744;28;20404;-86
2022/04/09 07:37:03;;;;;;;2.38;1.70;;;7.70;1.00;;;;;;4974044;28;20031;-86
2022/04/09 07:39:29;;;;;;;2.78;1.77;;;7.60;1.00;;;;;;4974115;28;20054;-86
2022/04/09 07:41:55;;;;;;;1.95;1.85;;;7.70;1.00;;;;;;4973726;28;20484;-86
2022/04/09 07:44:22;;;;;;;1.80;1.70;;;7.50;1.00;;;;;;4974578;28;20097;-86
2022/04/09 07:46:48;;;;;;;2.03;1.88;;;7.60;1.00;;;;;;4973571;28;20023;-86
2022/04/09 07:49:14;;;;;;;2.00;1.80;;;7.50;1.00;;;;;;4974227;28;20515;-86
2022/04/09 07:51:40;;;;;;;1.60;1.50;;;7.60;1.00;;;;;;4973690;28;20037;-86
2022/04/09 07:54:06;;;;;;;1.67;1.55;;;7.60;1.00;;;;;;4973711;28;20392;-86
2022/04/09 07:56:31;;;;;;;1.50;1.40;;;7.50;1.00;;;;;;4973639;28;20033;-86
2022/04/09 07:58:57;;;;;;;1.60;1.50;;;7.60;1.00;;;;;;4974166;28;20546;-86
2022/04/09 08:01:23;;;;;;;1.92;1.63;;;7.70;1.00;;;;;;4973879;28;20019;-86
2022/04/09 08:03:49;;;;;;;1.60;1.50;;;7.90;1.00;;;;;;4973286;28;20484;-86
2022/04/09 08:06:15;;;;;;;1.90;1.80;;;7.70;1.00;;;;;;4973607;28;20031;-87
2022/04/09 08:08:41;;;;;;;2.05;1.85;;;7.80;1.00;;;;;;4973355;28;20542;-86
2022/04/09 08:11:06;;;;;;;1.85;1.50;;;7.60;1.00;;;;;;4973733;28;20034;-86
2022/04/09 08:13:33;;;;;;;2.03;1.80;;;7.70;1.00;;;;;;4973759;28;20078;-86
2022/04/09 08:15:59;;;;;;;2.15;1.85;;;7.70;1.00;;;;;;4972576;28;20019;-86
2022/04/09 08:18:25;;;;;;;3.50;2.13;;;7.70;1.00;;;;;;4973106;28;20037;-86
2022/04/09 08:20:52;;;;;;;2.75;2.08;;;7.80;1.00;;;;;;4973462;28;20387;-86
2022/04/09 08:23:18;;;;;;;2.50;1.90;;;7.70;1.00;;;;;;4972319;28;20387;-86
2022/04/09 08:25:43;;;;;;;2.30;2.10;;;7.70;1.00;;;;;;4973489;28;20030;-86
2022/04/09 08:28:09;;;;;;;2.10;2.00;;;7.80;1.00;;;;;;4973295;28;20027;-86
2022/04/09 08:30:36;;;;;;;2.20;2.00;;;8.00;1.00;;;;;;4972577;28;20073;-86
2022/04/09 08:33:05;;;;;;;2.30;2.10;;;8.10;1.00;;;;;;4973081;28;20075;-86
2022/04/09 08:35:31;;;;;;;2.30;2.05;;;8.10;1.00;;;;;;4973402;28;20034;-86
2022/04/09 08:37:57;;;;;;;2.55;2.28;;;8.10;1.00;;;;;;4971793;28;20054;-86
2022/04/09 08:40:24;;;;;;;2.83;2.05;;;8.30;1.00;;;;;;4973702;28;20039;-86
2022/04/09 08:42:50;;;;;;;2.50;2.30;;;8.30;1.00;;;;;;4972938;28;20372;-86
2022/04/09 08:45:17;;;;;;;2.83;2.60;;;8.20;1.00;;;;;;4972382;28;20030;-86
2022/04/09 08:47:43;;;;;;;2.78;2.58;;;8.10;1.00;;;;;;4972580;28;20026;-86
2022/04/09 08:50:14;;;;;;;5.13;2.88;;;8.10;1.00;;;;;;4957857;28;20030;-86
2022/04/09 08:52:44;;;;;;;3.03;2.75;;;8.40;1.00;;;;;;4969178;28;20027;-86
2022/04/09 08:55:13;;;;;;;3.00;2.67;;;8.50;1.00;;;;;;4972617;28;20385;-86
2022/04/09 08:57:41;;;;;;;3.03;2.75;;;8.40;1.00;;;;;;4972289;28;20019;-86
2022/04/09 09:00:10;;;;;;;3.10;2.80;;;8.50;1.00;;;;;;4972581;28;20023;-86
2022/04/09 09:02:36;;;;;;;3.45;2.70;;;8.70;1.00;;;;;;4972394;28;20046;-86
2022/04/09 09:05:03;;;;;;;4.30;3.20;;;8.90;1.00;;;;;;4972586;28;20484;-86
2022/04/09 09:07:28;;;;;;;5.20;3.33;;;9.00;1.00;;;;;;4972926;28;20046;-86
2022/04/09 09:10:16;;;;;;;4.68;3.00;;;9.20;1.00;;;;;;4972628;28;20484;-86
2022/04/09 09:12:42;;;;;;;2.78;2.20;;;9.20;1.00;;;;;;4972101;28;20027;-86
2022/04/09 09:15:08;;;;;;;2.90;2.60;;;8.80;1.00;;;;;;4972315;28;20484;-86
2022/04/09 09:17:34;;;;;;;3.45;2.97;;;8.90;1.00;;;;;;4972203;28;20057;-86
2022/04/09 09:20:00;;;;;;;3.03;2.80;;;8.80;1.00;;;;;;4972159;28;20062;-86
2022/04/09 09:22:40;;;;;;;4.32;2.92;;;8.50;1.00;;;;;;4972832;28;20109;-86
2022/04/09 09:25:10;;;;;;;3.13;2.60;;;8.80;1.00;;;;;;4972565;28;20031;-86
2022/04/09 09:27:38;;;;;;;4.53;2.50;;;8.50;1.00;;;;;;4971600;28;20172;-86
2022/04/09 09:30:09;;;;;;;4.38;2.85;;;8.70;1.00;;;;;;4972410;28;20034;-86
2022/04/09 09:32:35;;;;;;;3.55;2.50;;;9.00;1.00;;;;;;4971799;28;20395;-86
2022/04/09 09:35:02;;;;;;;2.58;2.38;;;8.90;1.00;;;;;;4972216;28;20787;-86
2022/04/09 09:37:30;;;;;;;3.53;2.80;;;8.80;1.00;;;;;;4972295;28;20183;-86
2022/04/09 09:39:56;;;;;;;2.88;2.60;;;8.70;1.00;;;;;;4972591;28;20042;-86
2022/04/09 09:42:25;;;;;;;3.30;3.00;;;8.60;1.00;;;;;;4971477;28;20019;-86
2022/04/09 09:44:51;;;;;;;3.03;2.70;;;8.80;1.00;;;;;;4971919;28;20554;-86
2022/04/09 09:47:20;;;;;;;3.28;2.75;;;8.40;1.00;;;;;;4972025;28;20026;-87
2022/04/09 09:49:56;;;;;;;4.13;2.40;;;8.30;1.00;;;;;;4972069;28;20030;-87
2022/04/09 09:52:30;;;;;;;4.53;2.58;;;8.60;1.00;;;;;;4972599;28;20035;-86
2022/04/09 09:55:10;;;;;;;2.90;2.47;;;8.70;1.00;;;;;;4972218;28;20037;-86
2022/04/09 09:57:38;;;;;;;3.15;2.50;;;8.80;1.00;;;;;;4971415;28;20486;-86
2022/04/09 10:00:14;;;;;;;2.30;2.10;;;9.60;1.00;;;;;;4971924;28;20035;-86
2022/04/09 10:02:40;;;;;;;2.72;2.45;;;10.40;1.00;;;;;;4971751;28;20479;-86
2022/04/09 10:05:07;;;;;;;4.05;2.80;;;10.50;1.00;;;;;;4972092;28;20439;-86
2022/04/09 10:07:34;;;;;;;2.90;2.60;;;11.50;1.00;;;;;;4972761;28;20030;-86
2022/04/09 10:10:05;;;;;;;2.75;2.40;;;12.10;1.00;;;;;;4971613;28;20027;-86
2022/04/09 10:12:38;;;;;;;2.72;2.50;;;13.30;1.00;;;;;;4971113;28;20035;-86
2022/04/09 10:15:04;;;;;;;3.85;2.65;;;11.90;1.00;;;;;;4971611;28;20114;-87
2022/04/09 10:17:31;;;;;;;3.08;2.70;;;11.30;1.00;;;;;;4971843;28;20038;-86
2022/04/09 10:19:59;;;;;;;2.83;2.53;;;10.70;1.00;;;;;;4971450;28;20485;-87
2022/04/09 10:22:46;;;;;;;3.90;2.60;;;10.50;1.00;;;;;;4972669;28;20054;-86
2022/04/09 10:25:14;;;;;;;4.90;3.00;;;10.40;1.00;;;;;;4971517;28;20411;-86
2022/04/09 10:27:43;;;;;;;3.78;3.30;;;10.20;1.00;;;;;;4972172;28;20130;-86
2022/04/09 10:30:13;;;;;;;3.45;2.70;;;9.50;1.00;;;;;;4971359;28;20027;-87
2022/04/09 10:32:59;;;;;;;4.63;2.97;;;9.80;1.00;;;;;;4972188;28;20388;-87
2022/04/09 10:35:40;;;;;;;4.75;2.80;;;10.50;1.00;;;;;;4957909;28;20520;-87
2022/04/09 10:38:09;;;;;;;2.40;2.20;;;11.80;1.00;;;;;;4971478;28;20047;-87
2022/04/09 10:40:36;;;;;;;3.45;2.60;;;14.40;1.00;;;;;;4971947;28;20057;-87
2022/04/09 10:43:03;;;;;;;3.70;2.60;;;15.30;1.00;;;;;;4971468;28;20122;-87
2022/04/09 10:45:29;;;;;;;4.28;2.60;;;15.40;1.00;;;;;;4972684;28;20061;-87
2022/04/09 10:48:14;;;;;;;4.43;2.45;;;13.50;1.00;;;;;;4975004;28;20050;-88
2022/04/09 10:50:58;;;;;;;5.18;3.05;;;12.40;1.00;;;;;;4974974;28;20035;-87
2022/04/09 10:53:26;;;;;;;3.20;2.53;;;11.80;1.00;;;;;;4961650;28;20027;-87
2022/04/09 10:56:11;;;;;;;2.67;2.33;;;14.80;1.00;;;;;;4974829;28;20026;-88
2022/04/09 10:59:05;;;;;;;2.70;2.50;;;16.90;1.00;;;;;;4971583;28;20046;-87
2022/04/09 11:01:48;;;;;;;4.60;2.47;;;16.40;1.00;;;;;;4974852;28;20061;-87
2022/04/09 11:04:30;;;;;;;3.75;3.10;;;17.70;1.00;;;;;;4974252;28;20487;-87
2022/04/09 11:07:19;;;;;;;3.55;2.60;;;15.50;1.00;;;;;;4974659;28;20035;-88
2022/04/09 11:09:51;;;;;;;3.00;2.50;;;13.80;1.00;;;;;;4973971;28;20453;-87
2022/04/09 11:12:24;;;;;;;3.03;2.40;;;13.20;1.00;;;;;;4974361;28;20562;-88
2022/04/09 11:14:49;;;;;;;3.58;2.50;;;12.40;1.00;;;;;;4974717;28;20121;-87
2022/04/09 11:17:19;;;;;;;4.75;2.40;;;12.60;1.00;;;;;;4974253;28;22283;-87
2022/04/09 11:19:46;;;;;;;5.18;4.07;;;11.90;1.00;;;;;;4957426;28;20420;-87
2022/04/09 11:22:11;;;;;;;13.57;10.82;;;11.50;1.00;;;;;;4974421;28;20035;-87
2022/04/09 11:24:40;;;;;;;27.63;24.58;;;11.70;1.00;;;;;;4974034;28;20448;-87
2022/04/09 11:27:06;;;;;;;8.55;6.88;;;13.10;1.00;;;;;;4974302;28;20431;-87
2022/04/09 11:29:33;;;;;;;3.85;2.00;;;13.40;1.00;;;;;;4974186;28;20031;-87
2022/04/09 11:32:00;;;;;;;3.00;2.42;;;15.50;1.00;;;;;;4973834;28;20039;-87
2022/04/09 11:34:26;;;;;;;18.98;17.27;;;17.00;1.00;;;;;;4974725;28;20042;-87
2022/04/09 11:37:09;;;;;;;23.63;21.30;;;15.90;1.00;;;;;;4973960;28;20527;-88
2022/04/09 11:39:43;;;;;;;18.15;16.52;;;14.80;1.00;;;;;;4974415;28;20088;-88
2022/04/09 11:42:09;;;;;;;3.80;2.50;;;13.60;1.00;;;;;;4973859;28;20106;-87
2022/04/09 11:44:41;;;;;;;7.45;5.32;;;12.90;1.00;;;;;;4973869;28;20071;-87
2022/04/09 11:47:09;;;;;;;3.22;2.30;;;12.50;1.00;;;;;;4973644;28;20027;-87
2022/04/09 11:49:35;;;;;;;7.07;3.78;;;15.80;1.00;;;;;;4974441;28;20128;-88
2022/04/09 11:52:01;;;;;;;2.65;1.67;;;18.30;1.00;;;;;;4974186;28;20031;-87
2022/04/09 11:54:31;;;;;;;3.95;1.50;;;19.70;1.00;;;;;;4973148;28;20412;-88
2022/04/09 11:56:57;;;;;;;5.57;2.22;;;19.90;1.00;;;;;;4973851;28;20110;-88
2022/04/09 11:59:22;;;;;;;3.28;1.67;;;19.00;1.00;;;;;;4974143;28;20190;-88
2022/04/09 12:01:51;;;;;;;3.65;1.90;;;18.70;1.00;;;;;;4973526;28;20046;-87
2022/04/09 12:04:18;;;;;;;4.90;2.70;;;18.40;1.00;;;;;;4974190;28;20081;-87
2022/04/09 12:06:44;;;;;;;3.22;2.30;;;15.80;1.00;;;;;;4955693;28;20492;-88
2022/04/09 12:09:10;;;;;;;3.17;2.53;;;15.30;1.00;;;;;;4973398;28;20038;-88
2022/04/09 12:11:41;;;;;;;3.60;2.70;;;14.60;1.00;;;;;;4973317;28;20031;-88
2022/04/09 12:14:13;;;;;;;3.63;2.70;;;16.10;1.00;;;;;;4973189;28;20090;-87
2022/04/09 12:16:39;;;;;;;4.03;3.50;;;16.50;1.00;;;;;;4969934;28;20033;-88
2022/04/09 12:19:09;;;;;;;4.68;3.65;;;15.50;1.00;;;;;;4973292;28;20035;-87
2022/04/09 12:21:35;;;;;;;12.02;10.90;;;14.60;1.00;;;;;;4973129;28;20046;-87
2022/04/09 12:24:08;;;;;;;2.95;2.47;;;13.60;1.00;;;;;;4972980;28;20059;-87
2022/04/09 12:26:38;;;;;;;4.25;3.45;;;13.20;1.00;;;;;;4973211;28;20050;-87
2022/04/09 12:29:16;;;;;;;7.00;6.30;;;12.60;1.00;;;;;;4973141;28;20488;-87
2022/04/09 12:31:44;;;;;;;5.88;3.08;;;14.60;1.00;;;;;;4969973;28;20027;-87
2022/04/09 12:34:11;;;;;;;4.22;1.45;;;17.70;1.00;;;;;;4972875;28;20487;-88
2022/04/09 12:36:38;;;;;;;5.32;1.60;;;19.60;1.00;;;;;;4972270;28;20026;-88
2022/04/09 12:39:26;;;;;;;2.92;1.40;;;20.50;1.00;;;;;;4972629;28;20408;-88
2022/04/09 12:41:52;;;;;;;3.40;1.65;;;21.50;1.00;;;;;;4972621;28;20055;-87
2022/04/09 12:44:35;;;;;;;3.05;1.40;;;22.00;1.00;;;;;;4972641;28;20069;-89
2022/04/09 12:47:02;;;;;;;3.10;1.40;;;22.10;1.00;;;;;;4973336;28;20030;-88
2022/04/09 12:49:28;;;;;;;4.50;1.55;;;22.60;1.00;;;;;;4973305;28;20030;-88
2022/04/09 12:51:54;;;;;;;2.92;1.67;;;21.50;1.00;;;;;;4954807;28;20031;-88
2022/04/09 12:54:21;;;;;;;3.22;1.75;;;18.20;1.00;;;;;;4972306;28;20065;-88
2022/04/09 12:56:47;;;;;;;2.90;1.38;;;17.00;1.00;;;;;;4972418;28;20053;-88
2022/04/09 12:59:12;;;;;;;2.95;1.30;;;16.30;1.00;;;;;;4972863;28;20484;-88
2022/04/09 13:01:38;;;;;;;3.42;1.40;;;15.50;1.00;;;;;;4973133;28;20019;-88
2022/04/09 13:04:04;;;;;;;2.42;1.10;;;14.40;1.00;;;;;;4972627;28;20038;-87